sensor_id;sensor_type;location;lat;lon;timestamp;pressure;altitude;pressure_sealevel;temperature;humidity
39435;BME280;66825;51.880;-0.518;2023-01-20T00:01:53;100299.94;;;15.07;37.31
39435;BME280;66825;51.880;-0.518;2023-01-20T00:04:18;100310.81;;;15.07;37.51
39435;BME280;66825;51.880;-0.518;2023-01-20T00:06:44;100302.69;;;15.02;37.52
39435;BME280;66825;51.880;-0.518;2023-01-20T00:09:13;100303.22;;;15.04;37.54
39435;BME280;66825;51.880;-0.518;2023-01-20T00:11:38;100197.19;;;14.41;37.37
39435;BME280;66825;51.880;-0.518;2023-01-20T00:14:04;100294.31;;;14.98;37.70
39435;BME280;66825;51.880;-0.518;2023-01-20T00:16:30;100308.13;;;15.02;37.51
39435;BME280;66825;51.880;-0.518;2023-01-20T00:18:56;100309.25;;;15.01;37.80
39435;BME280;66825;51.880;-0.518;2023-01-20T00:21:22;100322.81;;;15.01;37.71
39435;BME280;66825;51.880;-0.518;2023-01-20T00:23:48;100301.13;;;14.96;37.58
39435;BME280;66825;51.880;-0.518;2023-01-20T00:26:16;100301.97;;;14.91;37.80
39435;BME280;66825;51.880;-0.518;2023-01-20T00:28:43;100226.22;;;14.41;37.56
39435;BME280;66825;51.880;-0.518;2023-01-20T00:31:29;100292.84;;;14.82;37.44
39435;BME280;66825;51.880;-0.518;2023-01-20T00:33:57;100320.94;;;14.96;37.56
39435;BME280;66825;51.880;-0.518;2023-01-20T00:36:24;100308.78;;;14.88;37.24
39435;BME280;66825;51.880;-0.518;2023-01-20T00:38:50;100332.34;;;14.93;37.43
39435;BME280;66825;51.880;-0.518;2023-01-20T00:41:16;100218.47;;;14.24;37.59
39435;BME280;66825;51.880;-0.518;2023-01-20T00:43:42;100328.00;;;14.92;37.70
39435;BME280;66825;51.880;-0.518;2023-01-20T00:46:08;100223.63;;;14.25;37.44
39435;BME280;66825;51.880;-0.518;2023-01-20T00:48:35;100341.88;;;14.90;37.50
39435;BME280;66825;51.880;-0.518;2023-01-20T00:51:01;100222.28;;;14.23;37.73
39435;BME280;66825;51.880;-0.518;2023-01-20T00:53:26;100322.72;;;14.76;37.67
39435;BME280;66825;51.880;-0.518;2023-01-20T00:55:52;100248.53;;;14.27;37.58
39435;BME280;66825;51.880;-0.518;2023-01-20T00:58:17;100153.34;;;13.65;37.68
39435;BME280;66825;51.880;-0.518;2023-01-20T01:00:45;100345.13;;;14.87;37.39
39435;BME280;66825;51.880;-0.518;2023-01-20T01:03:11;100334.34;;;14.82;37.56
39435;BME280;66825;51.880;-0.518;2023-01-20T01:05:36;100256.69;;;14.22;37.38
39435;BME280;66825;51.880;-0.518;2023-01-20T01:08:02;100353.84;;;14.84;37.54
39435;BME280;66825;51.880;-0.518;2023-01-20T01:10:28;100359.28;;;14.84;37.87
39435;BME280;66825;51.880;-0.518;2023-01-20T01:12:53;100156.88;;;13.60;37.68
39435;BME280;66825;51.880;-0.518;2023-01-20T01:15:19;100352.25;;;14.83;37.57
39435;BME280;66825;51.880;-0.518;2023-01-20T01:17:44;100366.88;;;14.82;37.54
39435;BME280;66825;51.880;-0.518;2023-01-20T01:20:11;100334.22;;;14.58;37.36
39435;BME280;66825;51.880;-0.518;2023-01-20T01:22:37;100265.13;;;14.16;37.44
39435;BME280;66825;51.880;-0.518;2023-01-20T01:25:02;100271.91;;;14.18;37.68
39435;BME280;66825;51.880;-0.518;2023-01-20T01:27:28;100362.84;;;14.80;37.70
39435;BME280;66825;51.880;-0.518;2023-01-20T01:29:54;100325.06;;;14.54;37.40
39435;BME280;66825;51.880;-0.518;2023-01-20T01:32:20;100368.56;;;14.78;37.76
39435;BME280;66825;51.880;-0.518;2023-01-20T01:34:46;100365.03;;;14.77;37.67
39435;BME280;66825;51.880;-0.518;2023-01-20T01:37:12;100378.88;;;14.76;37.82
39435;BME280;66825;51.880;-0.518;2023-01-20T01:39:37;100278.41;;;14.17;37.51
39435;BME280;66825;51.880;-0.518;2023-01-20T01:42:10;100367.22;;;14.75;37.45
39435;BME280;66825;51.880;-0.518;2023-01-20T01:44:38;100297.31;;;14.22;37.45
39435;BME280;66825;51.880;-0.518;2023-01-20T01:47:04;100333.19;;;14.49;37.70
39435;BME280;66825;51.880;-0.518;2023-01-20T01:49:31;100268.75;;;14.01;37.54
39435;BME280;66825;51.880;-0.518;2023-01-20T01:51:59;100383.25;;;14.72;37.63
39435;BME280;66825;51.880;-0.518;2023-01-20T01:54:30;100360.31;;;14.54;37.86
39435;BME280;66825;51.880;-0.518;2023-01-20T01:56:57;100375.16;;;14.61;37.63
39435;BME280;66825;51.880;-0.518;2023-01-20T01:59:23;100389.22;;;14.69;37.88
39435;BME280;66825;51.880;-0.518;2023-01-20T02:01:50;100386.00;;;14.61;37.33
39435;BME280;66825;51.880;-0.518;2023-01-20T02:04:22;100394.66;;;14.69;37.48
39435;BME280;66825;51.880;-0.518;2023-01-20T02:06:51;100376.56;;;14.54;37.48
39435;BME280;66825;51.880;-0.518;2023-01-20T02:09:18;100408.50;;;14.67;37.62
39435;BME280;66825;51.880;-0.518;2023-01-20T02:11:47;100417.44;;;14.63;37.49
39435;BME280;66825;51.880;-0.518;2023-01-20T02:14:18;100411.72;;;14.64;37.64
39435;BME280;66825;51.880;-0.518;2023-01-20T02:22:56;100417.44;;;14.63;37.68
39435;BME280;66825;51.880;-0.518;2023-01-20T02:34:26;100435.34;;;14.58;37.99
39435;BME280;66825;51.880;-0.518;2023-01-20T02:37:00;100347.28;;;14.01;37.52
39435;BME280;66825;51.880;-0.518;2023-01-20T02:42:07;100434.84;;;14.56;37.43
39435;BME280;66825;51.880;-0.518;2023-01-20T02:44:45;100441.34;;;14.55;37.21
39435;BME280;66825;51.880;-0.518;2023-01-20T02:50:07;100442.44;;;14.54;37.72
39435;BME280;66825;51.880;-0.518;2023-01-20T02:52:38;100442.19;;;14.51;37.70
39435;BME280;66825;51.880;-0.518;2023-01-20T02:55:10;100450.84;;;14.53;37.15
39435;BME280;66825;51.880;-0.518;2023-01-20T02:57:47;100364.38;;;13.96;37.91
39435;BME280;66825;51.880;-0.518;2023-01-20T03:00:19;100406.50;;;14.28;37.76
39435;BME280;66825;51.880;-0.518;2023-01-20T03:02:49;100455.72;;;14.51;37.88
39435;BME280;66825;51.880;-0.518;2023-01-20T03:05:36;100351.16;;;13.89;37.38
39435;BME280;66825;51.880;-0.518;2023-01-20T03:08:05;100430.53;;;14.45;37.41
39435;BME280;66825;51.880;-0.518;2023-01-20T03:10:34;100442.47;;;14.49;37.78
39435;BME280;66825;51.880;-0.518;2023-01-20T03:13:46;100443.56;;;14.48;37.84
39435;BME280;66825;51.880;-0.518;2023-01-20T03:16:03;100448.44;;;14.46;37.78
39435;BME280;66825;51.880;-0.518;2023-01-20T03:18:31;100451.94;;;14.46;37.63
39435;BME280;66825;51.880;-0.518;2023-01-20T03:20:58;100448.44;;;14.46;37.45
39435;BME280;66825;51.880;-0.518;2023-01-20T03:23:27;100439.50;;;14.45;37.53
39435;BME280;66825;51.880;-0.518;2023-01-20T03:25:55;100331.44;;;13.73;37.65
39435;BME280;66825;51.880;-0.518;2023-01-20T03:28:20;100423.56;;;14.28;37.36
39435;BME280;66825;51.880;-0.518;2023-01-20T03:30:46;100378.75;;;13.96;37.39
39435;BME280;66825;51.880;-0.518;2023-01-20T03:33:13;100398.47;;;14.07;37.76
39435;BME280;66825;51.880;-0.518;2023-01-20T03:35:40;100442.53;;;14.34;37.86
39435;BME280;66825;51.880;-0.518;2023-01-20T03:38:06;100406.88;;;14.11;37.22
39435;BME280;66825;51.880;-0.518;2023-01-20T03:40:44;100407.41;;;14.13;37.72
39435;BME280;66825;51.880;-0.518;2023-01-20T03:43:18;100386.88;;;13.96;37.54
39435;BME280;66825;51.880;-0.518;2023-01-20T03:46:05;100453.38;;;14.34;37.74
39435;BME280;66825;51.880;-0.518;2023-01-20T03:48:51;100469.91;;;14.32;37.43
39435;BME280;66825;51.880;-0.518;2023-01-20T03:51:34;100406.63;;;14.02;37.26
39435;BME280;66825;51.880;-0.518;2023-01-20T03:54:09;100431.50;;;14.14;37.28
39435;BME280;66825;51.880;-0.518;2023-01-20T03:56:41;100446.38;;;14.17;37.15
39435;BME280;66825;51.880;-0.518;2023-01-20T03:59:10;100371.81;;;13.64;37.40
39435;BME280;66825;51.880;-0.518;2023-01-20T04:01:41;100384.78;;;13.73;37.28
39435;BME280;66825;51.880;-0.518;2023-01-20T04:04:10;100479.41;;;14.29;37.79
39435;BME280;66825;51.880;-0.518;2023-01-20T04:06:39;100470.22;;;14.25;37.23
39435;BME280;66825;51.880;-0.518;2023-01-20T04:09:10;100479.13;;;14.31;37.66
39435;BME280;66825;51.880;-0.518;2023-01-20T04:11:37;100452.63;;;14.12;37.49
39435;BME280;66825;51.880;-0.518;2023-01-20T04:14:03;100471.28;;;14.24;37.30
39435;BME280;66825;51.880;-0.518;2023-01-20T04:16:29;100486.72;;;14.29;37.60
39435;BME280;66825;51.880;-0.518;2023-01-20T04:18:54;100487.81;;;14.28;37.09
39435;BME280;66825;51.880;-0.518;2023-01-20T04:21:37;100485.91;;;14.28;37.30
39435;BME280;66825;51.880;-0.518;2023-01-20T04:26:54;100483.81;;;14.10;37.09
39435;BME280;66825;51.880;-0.518;2023-01-20T04:29:20;100489.97;;;14.26;37.61
39435;BME280;66825;51.880;-0.518;2023-01-20T04:31:45;100497.31;;;14.25;37.11
39435;BME280;66825;51.880;-0.518;2023-01-20T04:34:14;100479.75;;;14.07;37.28
39435;BME280;66825;51.880;-0.518;2023-01-20T04:36:42;100503.00;;;14.24;37.48
39435;BME280;66825;51.880;-0.518;2023-01-20T04:39:08;100506.81;;;14.23;37.50
39435;BME280;66825;51.880;-0.518;2023-01-20T04:41:33;100521.16;;;14.23;37.46
39435;BME280;66825;51.880;-0.518;2023-01-20T04:43:59;100508.69;;;14.22;37.74
39435;BME280;66825;51.880;-0.518;2023-01-20T04:46:25;100482.75;;;14.06;37.47
39435;BME280;66825;51.880;-0.518;2023-01-20T04:48:50;100431.09;;;13.66;36.96
39435;BME280;66825;51.880;-0.518;2023-01-20T04:51:16;100522.25;;;14.22;37.55
39435;BME280;66825;51.880;-0.518;2023-01-20T04:53:41;100534.16;;;14.21;37.24
39435;BME280;66825;51.880;-0.518;2023-01-20T04:56:11;100511.44;;;14.12;37.31
39435;BME280;66825;51.880;-0.518;2023-01-20T04:58:37;100413.00;;;13.51;37.55
39435;BME280;66825;51.880;-0.518;2023-01-20T05:01:03;100381.03;;;13.27;37.13
39435;BME280;66825;51.880;-0.518;2023-01-20T05:03:28;100530.09;;;14.19;37.39
39435;BME280;66825;51.880;-0.518;2023-01-20T05:05:54;100535.53;;;14.19;37.14
39435;BME280;66825;51.880;-0.518;2023-01-20T05:08:20;100533.09;;;14.17;37.30
39435;BME280;66825;51.880;-0.518;2023-01-20T05:10:45;100548.56;;;14.17;37.23
39435;BME280;66825;51.880;-0.518;2023-01-20T05:13:11;100548.56;;;14.17;37.36
39435;BME280;66825;51.880;-0.518;2023-01-20T05:15:38;100349.44;;;12.92;37.26
39435;BME280;66825;51.880;-0.518;2023-01-20T05:18:04;100547.19;;;14.09;37.34
39435;BME280;66825;51.880;-0.518;2023-01-20T05:20:29;100546.94;;;14.16;37.58
39435;BME280;66825;51.880;-0.518;2023-01-20T05:22:54;100529.34;;;14.03;37.28
39435;BME280;66825;51.880;-0.518;2023-01-20T05:25:20;100496.34;;;13.75;37.08
39435;BME280;66825;51.880;-0.518;2023-01-20T05:27:45;100449.25;;;13.45;37.73
39435;BME280;66825;51.880;-0.518;2023-01-20T05:30:11;100521.50;;;13.86;37.85
39435;BME280;66825;51.880;-0.518;2023-01-20T05:32:37;100560.72;;;14.14;37.17
39435;BME280;66825;51.880;-0.518;2023-01-20T05:35:03;100568.06;;;14.13;37.36
39435;BME280;66825;51.880;-0.518;2023-01-20T05:37:28;100440.31;;;13.29;37.27
39435;BME280;66825;51.880;-0.518;2023-01-20T05:39:54;100552.38;;;14.00;37.70
39435;BME280;66825;51.880;-0.518;2023-01-20T05:42:19;100476.59;;;13.48;37.87
39435;BME280;66825;51.880;-0.518;2023-01-20T05:44:44;100434.38;;;13.27;37.59
39435;BME280;66825;51.880;-0.518;2023-01-20T05:47:10;100572.94;;;14.11;37.32
39435;BME280;66825;51.880;-0.518;2023-01-20T05:49:35;100580.78;;;14.08;37.22
39435;BME280;66825;51.880;-0.518;2023-01-20T05:52:01;100581.34;;;14.10;37.19
39435;BME280;66825;51.880;-0.518;2023-01-20T05:54:26;100574.31;;;14.04;37.43
39435;BME280;66825;51.880;-0.518;2023-01-20T05:56:52;100581.34;;;14.10;37.33
39435;BME280;66825;51.880;-0.518;2023-01-20T05:59:17;100585.97;;;14.09;37.19
39435;BME280;66825;51.880;-0.518;2023-01-20T06:01:43;100576.47;;;14.02;37.41
39435;BME280;66825;51.880;-0.518;2023-01-20T06:04:08;100497.97;;;13.50;37.42
39435;BME280;66825;51.880;-0.518;2023-01-20T06:06:34;100588.91;;;14.08;37.37
39435;BME280;66825;51.880;-0.518;2023-01-20T06:08:59;100566.19;;;13.93;37.62
39435;BME280;66825;51.880;-0.518;2023-01-20T06:11:25;100593.53;;;14.07;37.71
39435;BME280;66825;51.880;-0.518;2023-01-20T06:13:50;100482.78;;;13.33;37.24
39435;BME280;66825;51.880;-0.518;2023-01-20T06:16:16;100601.66;;;14.07;37.38
39435;BME280;66825;51.880;-0.518;2023-01-20T06:18:42;100482.78;;;13.33;37.56
39435;BME280;66825;51.880;-0.518;2023-01-20T06:21:08;100552.94;;;13.76;37.39
39435;BME280;66825;51.880;-0.518;2023-01-20T06:23:33;100607.38;;;14.06;37.62
39435;BME280;66825;51.880;-0.518;2023-01-20T06:26:07;100493.06;;;13.26;37.53
39435;BME280;66825;51.880;-0.518;2023-01-20T06:28:33;100623.88;;;14.04;37.64
39435;BME280;66825;51.880;-0.518;2023-01-20T06:31:03;100518.50;;;13.35;37.48
39435;BME280;66825;51.880;-0.518;2023-01-20T06:33:29;100626.88;;;14.03;37.45
39435;BME280;66825;51.880;-0.518;2023-01-20T06:35:56;100533.19;;;13.40;37.86
39435;BME280;66825;51.880;-0.518;2023-01-20T06:38:22;100638.78;;;14.02;37.37
39435;BME280;66825;51.880;-0.518;2023-01-20T06:40:48;100628.75;;;13.92;37.50
39435;BME280;66825;51.880;-0.518;2023-01-20T06:43:14;100645.81;;;14.03;37.68
39435;BME280;66825;51.880;-0.518;2023-01-20T06:45:39;100666.94;;;14.01;37.49
39435;BME280;66825;51.880;-0.518;2023-01-20T06:48:05;100652.31;;;14.02;37.60
39435;BME280;66825;51.880;-0.518;2023-01-20T06:50:30;100646.09;;;14.01;37.52
39435;BME280;66825;51.880;-0.518;2023-01-20T06:52:57;100661.53;;;14.01;37.26
39435;BME280;66825;51.880;-0.518;2023-01-20T06:55:22;100535.81;;;13.19;37.29
39435;BME280;66825;51.880;-0.518;2023-01-20T06:57:48;100558.31;;;13.35;37.49
39435;BME280;66825;51.880;-0.518;2023-01-20T07:00:14;100666.16;;;14.00;37.52
39435;BME280;66825;51.880;-0.518;2023-01-20T07:02:39;100658.03;;;13.95;37.27
39435;BME280;66825;51.880;-0.518;2023-01-20T07:05:05;100674.56;;;13.98;37.38
39435;BME280;66825;51.880;-0.518;2023-01-20T07:07:33;100583.19;;;13.37;37.48
39435;BME280;66825;51.880;-0.518;2023-01-20T07:10:00;100636.59;;;13.73;37.43
39435;BME280;66825;51.880;-0.518;2023-01-20T07:12:25;100661.53;;;13.85;37.28
39435;BME280;66825;51.880;-0.518;2023-01-20T07:14:51;100682.13;;;13.96;37.16
39435;BME280;66825;51.880;-0.518;2023-01-20T07:17:16;100676.16;;;13.94;37.14
39435;BME280;66825;51.880;-0.518;2023-01-20T07:19:42;100677.53;;;13.92;37.13
39435;BME280;66825;51.880;-0.518;2023-01-20T07:22:07;100663.69;;;13.78;37.84
39435;BME280;66825;51.880;-0.518;2023-01-20T07:24:33;100582.63;;;13.25;37.35
39435;BME280;66825;51.880;-0.518;2023-01-20T07:26:58;100698.66;;;13.95;36.99
39435;BME280;66825;51.880;-0.518;2023-01-20T07:29:25;100689.16;;;13.82;37.40
39435;BME280;66825;51.880;-0.518;2023-01-20T07:31:50;100648.75;;;13.60;37.81
39435;BME280;66825;51.880;-0.518;2023-01-20T07:34:16;100591.56;;;13.25;37.35
39435;BME280;66825;51.880;-0.518;2023-01-20T07:36:41;100700.25;;;13.96;37.92
39435;BME280;66825;51.880;-0.518;2023-01-20T07:39:11;100722.75;;;13.91;37.57
39435;BME280;66825;51.880;-0.518;2023-01-20T07:41:38;100721.69;;;13.97;37.70
39435;BME280;66825;51.880;-0.518;2023-01-20T07:44:04;100721.94;;;13.96;37.72
39435;BME280;66825;51.880;-0.518;2023-01-20T07:46:30;100716.28;;;13.97;37.36
39435;BME280;66825;51.880;-0.518;2023-01-20T07:48:55;100746.63;;;14.05;37.75
39435;BME280;66825;51.880;-0.518;2023-01-20T07:51:21;100725.75;;;14.05;37.49
39435;BME280;66825;51.880;-0.518;2023-01-20T07:53:49;100543.59;;;12.90;37.41
39435;BME280;66825;51.880;-0.518;2023-01-20T07:56:21;100747.44;;;14.16;37.72
39435;BME280;66825;51.880;-0.518;2023-01-20T07:58:47;100662.84;;;13.62;38.05
39435;BME280;66825;51.880;-0.518;2023-01-20T08:01:16;100753.41;;;14.23;37.99
39435;BME280;66825;51.880;-0.518;2023-01-20T08:03:42;100762.91;;;14.25;37.51
39435;BME280;66825;51.880;-0.518;2023-01-20T08:06:10;100763.19;;;14.29;37.61
39435;BME280;66825;51.880;-0.518;2023-01-20T08:08:36;100662.06;;;13.61;37.92
39435;BME280;66825;51.880;-0.518;2023-01-20T08:11:02;100754.50;;;14.27;37.58
39435;BME280;66825;51.880;-0.518;2023-01-20T08:13:29;100775.38;;;14.42;37.85
39435;BME280;66825;51.880;-0.518;2023-01-20T08:15:55;100774.03;;;14.44;37.73
39435;BME280;66825;51.880;-0.518;2023-01-20T08:18:23;100774.53;;;14.46;37.81
39435;BME280;66825;51.880;-0.518;2023-01-20T08:20:48;100689.97;;;13.93;37.24
39435;BME280;66825;51.880;-0.518;2023-01-20T08:23:14;100785.69;;;14.55;37.59
39435;BME280;66825;51.880;-0.518;2023-01-20T08:25:39;100716.28;;;14.13;37.17
39435;BME280;66825;51.880;-0.518;2023-01-20T08:28:05;100772.94;;;14.56;37.51
39435;BME280;66825;51.880;-0.518;2023-01-20T08:30:30;100790.88;;;14.67;37.61
39435;BME280;66825;51.880;-0.518;2023-01-20T08:32:56;100794.38;;;14.73;37.23
39435;BME280;66825;51.880;-0.518;2023-01-20T08:35:21;100723.88;;;14.32;37.06
39435;BME280;66825;51.880;-0.518;2023-01-20T08:37:47;100802.78;;;14.82;37.44
39435;BME280;66825;51.880;-0.518;2023-01-20T08:40:12;100798.16;;;14.87;36.95
39435;BME280;66825;51.880;-0.518;2023-01-20T08:42:38;100792.19;;;14.90;37.35
39435;BME280;66825;51.880;-0.518;2023-01-20T08:45:06;100800.06;;;14.97;36.77
39435;BME280;66825;51.880;-0.518;2023-01-20T08:47:38;100797.63;;;15.01;36.85
39435;BME280;66825;51.880;-0.518;2023-01-20T08:50:09;100809.00;;;15.08;36.77
39435;BME280;66825;51.880;-0.518;2023-01-20T08:52:34;100805.19;;;15.09;36.95
39435;BME280;66825;51.880;-0.518;2023-01-20T08:55:00;100807.34;;;15.17;37.00
39435;BME280;66825;51.880;-0.518;2023-01-20T08:57:25;100803.81;;;15.17;36.73
39435;BME280;66825;51.880;-0.518;2023-01-20T08:59:52;100813.03;;;15.26;36.64
39435;BME280;66825;51.880;-0.518;2023-01-20T09:02:17;100816.00;;;15.30;36.81
39435;BME280;66825;51.880;-0.518;2023-01-20T09:04:43;100820.34;;;15.36;36.78
39435;BME280;66825;51.880;-0.518;2023-01-20T09:07:11;100778.88;;;15.09;37.04
39435;BME280;66825;51.880;-0.518;2023-01-20T09:09:37;100816.50;;;15.42;36.92
39435;BME280;66825;51.880;-0.518;2023-01-20T09:12:06;100816.50;;;15.47;36.49
39435;BME280;66825;51.880;-0.518;2023-01-20T09:14:32;100786.66;;;15.37;36.56
39435;BME280;66825;51.880;-0.518;2023-01-20T09:16:57;100721.09;;;14.99;36.87
39435;BME280;66825;51.880;-0.518;2023-01-20T09:19:24;100706.72;;;14.93;36.94
39435;BME280;66825;51.880;-0.518;2023-01-20T09:21:50;100820.78;;;15.64;38.71
39435;BME280;66825;51.880;-0.518;2023-01-20T09:24:15;100835.16;;;15.69;39.95
39435;BME280;66825;51.880;-0.518;2023-01-20T09:26:41;100818.03;;;15.69;38.09
39435;BME280;66825;51.880;-0.518;2023-01-20T09:29:10;100832.66;;;15.78;37.98
39435;BME280;66825;51.880;-0.518;2023-01-20T09:31:41;100751.66;;;15.30;37.54
39435;BME280;66825;51.880;-0.518;2023-01-20T09:34:12;100744.63;;;15.24;38.95
39435;BME280;66825;51.880;-0.518;2023-01-20T09:36:43;100839.72;;;15.90;38.55
39435;BME280;66825;51.880;-0.518;2023-01-20T09:39:11;100825.56;;;15.82;38.11
39435;BME280;66825;51.880;-0.518;2023-01-20T09:41:58;100741.59;;;15.36;38.88
39435;BME280;66825;51.880;-0.518;2023-01-20T09:47:18;100851.53;;;16.14;38.70
39435;BME280;66825;51.880;-0.518;2023-01-20T09:50:21;100722.56;;;15.41;38.40
39435;BME280;66825;51.880;-0.518;2023-01-20T09:56:07;100868.56;;;16.35;37.56
39435;BME280;66825;51.880;-0.518;2023-01-20T09:59:00;100849.28;;;16.27;38.15
39435;BME280;66825;51.880;-0.518;2023-01-20T10:01:37;100868.22;;;16.47;38.09
39435;BME280;66825;51.880;-0.518;2023-01-20T10:06:41;100858.19;;;16.43;38.08
39435;BME280;66825;51.880;-0.518;2023-01-20T10:09:18;100887.41;;;16.66;38.07
39435;BME280;66825;51.880;-0.518;2023-01-20T10:11:47;100892.50;;;16.73;37.33
39435;BME280;66825;51.880;-0.518;2023-01-20T10:14:18;100889.75;;;16.78;37.31
39435;BME280;66825;51.880;-0.518;2023-01-20T10:17:28;100793.06;;;16.22;37.33
39435;BME280;66825;51.880;-0.518;2023-01-20T10:22:27;100894.31;;;16.93;37.26
39435;BME280;66825;51.880;-0.518;2023-01-20T10:25:08;100897.75;;;17.04;37.54
39435;BME280;66825;51.880;-0.518;2023-01-20T10:27:42;100897.69;;;17.09;37.51
39435;BME280;66825;51.880;-0.518;2023-01-20T10:30:12;100890.69;;;17.03;36.45
39435;BME280;66825;51.880;-0.518;2023-01-20T10:32:57;100809.69;;;16.55;37.82
39435;BME280;66825;51.880;-0.518;2023-01-20T10:35:27;100907.91;;;17.23;37.64
39435;BME280;66825;51.880;-0.518;2023-01-20T10:37:53;100734.66;;;16.14;37.13
39435;BME280;66825;51.880;-0.518;2023-01-20T10:42:52;100903.16;;;17.39;37.48
39435;BME280;66825;51.880;-0.518;2023-01-20T10:45:35;100914.78;;;17.44;37.12
39435;BME280;66825;51.880;-0.518;2023-01-20T10:51:07;100893.22;;;17.48;37.06
39435;BME280;66825;51.880;-0.518;2023-01-20T10:56:41;100884.56;;;17.46;37.09
39435;BME280;66825;51.880;-0.518;2023-01-20T10:59:16;100911.56;;;17.67;36.61
39435;BME280;66825;51.880;-0.518;2023-01-20T11:01:48;100923.25;;;17.72;36.76
39435;BME280;66825;51.880;-0.518;2023-01-20T11:04:18;100916.66;;;17.73;36.61
39435;BME280;66825;51.880;-0.518;2023-01-20T11:06:47;100896.91;;;17.62;36.48
39435;BME280;66825;51.880;-0.518;2023-01-20T11:09:24;100902.53;;;17.71;36.23
39435;BME280;66825;51.880;-0.518;2023-01-20T11:11:51;100926.66;;;17.83;36.00
39435;BME280;66825;51.880;-0.518;2023-01-20T11:14:18;100917.38;;;17.84;36.31
39435;BME280;66825;51.880;-0.518;2023-01-20T11:16:44;100882.41;;;17.67;36.24
39435;BME280;66825;51.880;-0.518;2023-01-20T11:19:12;100923.00;;;17.93;36.24
39435;BME280;66825;51.880;-0.518;2023-01-20T11:21:37;100883.16;;;17.73;36.05
39435;BME280;66825;51.880;-0.518;2023-01-20T11:27:01;100926.53;;;17.99;36.20
39435;BME280;66825;51.880;-0.518;2023-01-20T11:29:29;100928.34;;;18.03;35.95
39435;BME280;66825;51.880;-0.518;2023-01-20T11:31:55;100925.84;;;18.07;35.86
39435;BME280;66825;51.880;-0.518;2023-01-20T11:36:49;100905.28;;;17.96;35.88
39435;BME280;66825;51.880;-0.518;2023-01-20T11:39:27;100764.06;;;17.06;36.35
39435;BME280;66825;51.880;-0.518;2023-01-20T11:42:12;100902.00;;;17.93;35.91
39435;BME280;66825;51.880;-0.518;2023-01-20T11:44:53;100935.53;;;18.18;35.78
39435;BME280;66825;51.880;-0.518;2023-01-20T11:47:31;100854.59;;;17.70;35.95
39435;BME280;66825;51.880;-0.518;2023-01-20T11:52:43;100900.59;;;18.01;36.05
39435;BME280;66825;51.880;-0.518;2023-01-20T11:58:00;100934.03;;;18.31;36.18
39435;BME280;66825;51.880;-0.518;2023-01-20T12:00:44;100939.16;;;18.33;35.79
39435;BME280;66825;51.880;-0.518;2023-01-20T12:08:39;100836.28;;;17.76;35.89
39435;BME280;66825;51.880;-0.518;2023-01-20T12:11:08;100929.88;;;18.34;35.87
39435;BME280;66825;51.880;-0.518;2023-01-20T12:13:43;100935.50;;;18.42;36.04
39435;BME280;66825;51.880;-0.518;2023-01-20T12:16:33;100834.00;;;17.83;36.07
39435;BME280;66825;51.880;-0.518;2023-01-20T12:19:03;100934.84;;;18.51;36.14
39435;BME280;66825;51.880;-0.518;2023-01-20T12:21:41;100935.34;;;18.53;37.54
39435;BME280;66825;51.880;-0.518;2023-01-20T12:26:51;100935.81;;;18.60;36.65
39435;BME280;66825;51.880;-0.518;2023-01-20T12:29:39;100924.00;;;18.46;36.40
39435;BME280;66825;51.880;-0.518;2023-01-20T12:32:10;100940.06;;;18.66;36.10
39435;BME280;66825;51.880;-0.518;2023-01-20T12:34:36;100826.44;;;17.99;36.12
39435;BME280;66825;51.880;-0.518;2023-01-20T12:37:30;100944.66;;;18.71;35.81
39435;BME280;66825;51.880;-0.518;2023-01-20T12:40:19;100948.69;;;18.73;35.91
39435;BME280;66825;51.880;-0.518;2023-01-20T12:46:00;100938.00;;;18.77;36.15
39435;BME280;66825;51.880;-0.518;2023-01-20T12:56:59;100951.25;;;18.84;36.15
39435;BME280;66825;51.880;-0.518;2023-01-20T13:13:22;100946.41;;;18.81;35.78
39435;BME280;66825;51.880;-0.518;2023-01-20T13:20:58;100951.66;;;18.77;36.07
39435;BME280;66825;51.880;-0.518;2023-01-20T13:23:27;100850.78;;;18.15;36.08
39435;BME280;66825;51.880;-0.518;2023-01-20T13:25:54;100832.88;;;18.08;36.00
39435;BME280;66825;51.880;-0.518;2023-01-20T13:28:23;100946.56;;;18.70;36.00
39435;BME280;66825;51.880;-0.518;2023-01-20T13:30:52;100948.69;;;18.73;35.99
39435;BME280;66825;51.880;-0.518;2023-01-20T13:33:32;100944.13;;;18.69;36.15
39435;BME280;66825;51.880;-0.518;2023-01-20T13:35:59;100946.56;;;18.70;35.94
39435;BME280;66825;51.880;-0.518;2023-01-20T13:38:30;100939.31;;;18.61;36.08
39435;BME280;66825;51.880;-0.518;2023-01-20T13:41:02;100951.00;;;18.66;36.08
39435;BME280;66825;51.880;-0.518;2023-01-20T13:43:55;100953.19;;;18.64;35.70
39435;BME280;66825;51.880;-0.518;2023-01-20T13:46:36;100946.19;;;18.58;36.22
39435;BME280;66825;51.880;-0.518;2023-01-20T13:49:21;100954.91;;;18.60;36.13
39435;BME280;66825;51.880;-0.518;2023-01-20T13:51:46;100949.50;;;18.55;36.26
39435;BME280;66825;51.880;-0.518;2023-01-20T13:56:51;100941.31;;;18.55;36.05
39435;BME280;66825;51.880;-0.518;2023-01-20T13:59:16;100952.88;;;18.66;36.33
39435;BME280;66825;51.880;-0.518;2023-01-20T14:01:42;100952.09;;;18.65;36.25
39435;BME280;66825;51.880;-0.518;2023-01-20T14:04:16;100938.00;;;18.58;36.13
39435;BME280;66825;51.880;-0.518;2023-01-20T14:06:47;100957.03;;;18.63;35.97
39435;BME280;66825;51.880;-0.518;2023-01-20T14:09:23;100953.94;;;18.51;36.18
39435;BME280;66825;51.880;-0.518;2023-01-20T14:11:55;100980.25;;;18.61;36.13
39435;BME280;66825;51.880;-0.518;2023-01-20T14:14:23;100985.19;;;18.58;35.98
39435;BME280;66825;51.880;-0.518;2023-01-20T14:16:50;100987.13;;;18.58;35.98
39435;BME280;66825;51.880;-0.518;2023-01-20T14:19:37;100983.88;;;18.56;36.09
39435;BME280;66825;51.880;-0.518;2023-01-20T14:22:27;100909.25;;;18.03;36.12
39435;BME280;66825;51.880;-0.518;2023-01-20T14:24:57;100984.53;;;18.48;36.04
39435;BME280;66825;51.880;-0.518;2023-01-20T14:29:56;100999.56;;;18.45;36.22